Time;durP1;ratioP1;P1;durP2;ratioP2;P2;SDS_P1;SDS_P2;PMS_P1;PMS_P2;Temp;Humidity;BMP_temperature;BMP_pressure;BME280_temperature;BME280_humidity;BME280_pressure;Samples;Min_cycle;Max_cycle;Signal;HPM_P1;HPM_P2
2021/09/12 00:02:15;;;;;;;22.90;10.97;;;;;;;15.73;65.51;100507.33;126324;1099;104312;-80
2021/09/12 00:04:46;;;;;;;22.03;11.00;;;;;;;15.70;65.52;100501.98;126342;1099;104155;-81
2021/09/12 00:07:17;;;;;;;23.37;11.00;;;;;;;15.65;66.14;100503.69;126286;1099;104140;-80
2021/09/12 00:09:48;;;;;;;23.60;11.03;;;;;;;15.61;66.14;100497.47;125848;1099;104274;-80
2021/09/12 00:12:18;;;;;;;23.30;9.97;;;;;;;15.60;65.85;100500.09;126210;1099;104184;-79
2021/09/12 00:14:49;;;;;;;22.10;10.37;;;;;;;15.59;66.21;100495.66;126215;1099;104146;-79
2021/09/12 00:17:20;;;;;;;20.90;10.53;;;;;;;15.58;66.74;100494.78;125989;1099;104162;-80
2021/09/12 00:19:51;;;;;;;21.43;9.67;;;;;;;15.58;66.65;100493.87;126203;1099;104293;-80
2021/09/12 00:22:22;;;;;;;22.30;11.03;;;;;;;15.57;66.84;100492.11;125448;1099;104281;-80
2021/09/12 00:24:52;;;;;;;22.03;10.27;;;;;;;15.56;66.70;100492.97;125821;1099;104216;-82
2021/09/12 00:27:23;;;;;;;23.60;11.03;;;;;;;15.57;67.03;100492.11;126101;1099;104274;-79
2021/09/12 00:29:56;;;;;;;23.97;10.20;;;;;;;15.56;66.86;100490.32;126211;1099;104398;-81
2021/09/12 00:32:27;;;;;;;22.60;10.50;;;;;;;15.55;66.18;100491.17;126231;1099;104267;-81
2021/09/12 00:34:57;;;;;;;20.23;10.63;;;;;;;15.54;66.31;100487.66;126225;1099;104184;-81
2021/09/12 00:37:28;;;;;;;23.17;10.80;;;;;;;15.54;66.47;100487.66;126137;1099;104339;-80
2021/09/12 00:39:59;;;;;;;24.87;11.30;;;;;;;15.53;66.98;100484.98;125797;1099;104418;-81
2021/09/12 00:42:29;;;;;;;25.90;11.40;;;;;;;15.52;66.27;100481.46;126309;1099;104146;-80
2021/09/12 00:45:00;;;;;;;23.20;10.17;;;;;;;15.50;67.08;100483.17;126325;1099;104230;-81
2021/09/12 00:47:30;;;;;;;20.83;10.17;;;;;;;15.49;66.79;100488.44;126275;1099;104243;-79
2021/09/12 00:50:01;;;;;;;18.83;9.20;;;;;;;15.49;66.28;100485.80;126347;1099;104182;-80
2021/09/12 00:52:33;;;;;;;21.10;10.37;;;;;;;15.48;66.80;100486.68;126231;1099;104312;-80
2021/09/12 00:55:06;;;;;;;21.43;9.60;;;;;;;15.46;66.83;100479.60;126266;1099;104313;-79
2021/09/12 00:57:38;;;;;;;21.07;11.03;;;;;;;15.43;67.23;100484.84;126289;1099;104229;-81
2021/09/12 01:00:10;;;;;;;21.00;10.70;;;;;;;15.39;66.43;100485.65;126331;1099;104249;-81
2021/09/12 01:02:41;;;;;;;21.50;10.17;;;;;;;15.36;67.36;100479.43;126338;1099;104229;-80
2021/09/12 01:05:13;;;;;;;25.77;10.20;;;;;;;15.30;67.52;100480.20;126280;1099;104188;-81
2021/09/12 01:07:46;;;;;;;21.23;9.97;;;;;;;15.28;68.01;100479.30;126304;1099;104243;-79
2021/09/12 01:10:17;;;;;;;21.60;10.15;;;;;;;15.24;67.20;100486.31;126320;1099;104255;-80
2021/09/12 01:12:48;;;;;;;21.73;10.20;;;;;;;15.23;66.90;100491.57;126367;1099;104217;-79
2021/09/12 01:15:18;;;;;;;21.90;10.10;;;;;;;15.21;67.15;100483.61;126328;1099;104198;-82
2021/09/12 01:17:49;;;;;;;20.97;10.57;;;;;;;15.19;67.81;100487.08;126246;1099;104181;-81
2021/09/12 01:20:20;;;;;;;25.30;10.40;;;;;;;15.18;67.90;100485.33;126354;1098;104149;-80
2021/09/12 01:22:50;;;;;;;21.53;9.90;;;;;;;15.16;68.03;100482.66;126344;1099;104226;-79
2021/09/12 01:25:21;;;;;;;21.57;9.47;;;;;;;15.15;66.96;100482.63;126357;1099;104139;-80
2021/09/12 01:27:52;;;;;;;21.80;10.13;;;;;;;15.16;67.86;100484.39;126324;1099;104323;-79
2021/09/12 01:30:23;;;;;;;24.83;10.30;;;;;;;15.13;67.86;100484.34;126340;1099;104192;-81
2021/09/12 01:32:53;;;;;;;19.77;10.37;;;;;;;15.11;66.91;100481.67;126355;1099;104332;-80
2021/09/12 01:35:24;;;;;;;20.10;10.27;;;;;;;15.09;66.81;100492.22;126280;1099;104181;-80
2021/09/12 01:37:55;;;;;;;25.30;10.30;;;;;;;15.07;66.95;100485.14;126359;1099;104168;-80
2021/09/12 01:40:25;;;;;;;20.57;9.53;;;;;;;15.07;67.21;100485.14;126313;1099;104262;-81
2021/09/12 01:42:58;;;;;;;24.15;10.40;;;;;;;15.04;67.72;100477.16;126252;1099;104405;-81
2021/09/12 01:45:29;;;;;;;23.30;10.07;;;;;;;15.01;66.86;100482.39;126406;1099;104168;-80
2021/09/12 01:48:00;;;;;;;22.60;9.87;;;;;;;14.99;67.45;100479.73;126488;1098;104159;-78
2021/09/12 01:50:33;;;;;;;21.30;10.50;;;;;;;14.93;67.64;100476.98;126320;1098;105203;-80
2021/09/12 01:53:04;;;;;;;23.33;11.00;;;;;;;14.91;68.44;100476.03;126321;1099;104146;-79
2021/09/12 01:55:35;;;;;;;22.47;10.80;;;;;;;14.89;68.01;100472.48;126268;1098;104153;-79
2021/09/12 01:58:06;;;;;;;21.05;10.50;;;;;;;14.89;68.11;100475.13;126360;1099;104198;-81
2021/09/12 02:00:37;;;;;;;26.40;11.07;;;;;;;14.86;67.82;100478.59;126270;1099;105473;-79
2021/09/12 02:03:07;;;;;;;23.30;10.77;;;;;;;14.83;67.69;100470.62;126354;1099;104152;-81
2021/09/12 02:05:38;;;;;;;20.93;10.63;;;;;;;14.82;67.94;100475.88;126299;1099;104478;-82
2021/09/12 02:08:09;;;;;;;22.70;10.20;;;;;;;14.80;68.12;100472.33;126248;1099;104717;-81
2021/09/12 02:10:39;;;;;;;21.30;9.93;;;;;;;14.79;68.16;100478.45;126298;1099;104150;-80
2021/09/12 02:13:10;;;;;;;22.43;10.77;;;;;;;14.76;68.31;100476.67;126251;1099;104175;-80
2021/09/12 02:15:41;;;;;;;22.83;10.43;;;;;;;14.74;68.15;100484.56;126349;1099;104188;-80
2021/09/12 02:18:13;;;;;;;22.90;9.70;;;;;;;14.72;68.16;100472.19;126357;1099;104226;-79
2021/09/12 02:20:43;;;;;;;19.47;9.40;;;;;;;14.72;68.17;100481.02;126263;1097;104243;-79
2021/09/12 02:23:14;;;;;;;21.83;10.60;;;;;;;14.71;68.25;100479.23;126382;1099;104159;-80
2021/09/12 02:25:45;;;;;;;20.40;10.77;;;;;;;14.70;68.49;100481.84;126360;1096;104153;-81
2021/09/12 02:28:16;;;;;;;20.87;10.43;;;;;;;14.69;68.33;100477.41;126361;1097;104163;-79
2021/09/12 02:30:47;;;;;;;19.47;9.83;;;;;;;14.69;68.92;100480.05;126230;1099;104152;-79
2021/09/12 02:33:18;;;;;;;23.70;9.37;;;;;;;14.66;69.09;100475.62;126251;1099;104618;-80
2021/09/12 02:35:48;;;;;;;22.47;9.97;;;;;;;14.65;68.46;100476.47;126367;1099;104622;-80
2021/09/12 02:38:19;;;;;;;20.60;9.30;;;;;;;14.64;68.57;100471.16;126294;1099;104136;-82
2021/09/12 02:40:50;;;;;;;21.57;9.27;;;;;;;14.64;68.48;100479.96;126299;1099;104146;-80
2021/09/12 02:43:21;;;;;;;22.50;10.93;;;;;;;14.62;68.33;100472.89;126360;1099;104261;-80
2021/09/12 02:45:51;;;;;;;22.37;10.73;;;;;;;14.61;68.92;100471.98;126311;1098;104306;-80
2021/09/12 02:48:22;;;;;;;23.57;10.10;;;;;;;14.58;69.43;100473.66;126337;1099;104168;-80
2021/09/12 02:50:52;;;;;;;21.63;9.93;;;;;;;14.57;69.33;100470.13;126303;1099;104165;-80
2021/09/12 02:53:23;;;;;;;19.33;9.43;;;;;;;14.57;68.86;100478.05;126361;1099;104253;-80
2021/09/12 02:55:54;;;;;;;21.03;10.37;;;;;;;14.56;69.30;100471.86;126272;1098;104265;-80
2021/09/12 02:58:24;;;;;;;21.57;9.80;;;;;;;14.54;68.89;100476.23;126340;1099;104264;-80
2021/09/12 03:00:55;;;;;;;23.33;10.03;;;;;;;14.53;68.82;100474.44;126286;1099;104147;-81
2021/09/12 03:03:26;;;;;;;22.10;9.93;;;;;;;14.52;69.09;100464.77;126360;1099;104147;-80
2021/09/12 03:05:57;;;;;;;19.40;9.47;;;;;;;14.50;69.57;100468.22;126279;1099;104143;-79
2021/09/12 03:08:28;;;;;;;24.17;11.07;;;;;;;14.50;69.26;100468.22;126324;1099;104274;-80
2021/09/12 03:11:01;;;;;;;22.80;10.53;;;;;;;14.48;69.81;100467.31;126285;1099;104137;-80
2021/09/12 03:13:31;;;;;;;21.57;10.70;;;;;;;14.47;69.85;100469.05;126330;1096;104159;-80
2021/09/12 03:16:02;;;;;;;22.23;10.13;;;;;;;14.45;69.81;100472.53;126362;1096;104197;-80
2021/09/12 03:18:33;;;;;;;20.07;10.20;;;;;;;14.43;69.37;100466.31;126359;1099;104139;-80
2021/09/12 03:21:03;;;;;;;21.17;10.17;;;;;;;14.42;70.01;100467.20;126218;1099;104232;-80
2021/09/12 03:23:34;;;;;;;23.00;10.17;;;;;;;14.41;69.49;100470.69;126282;1099;104853;-79
2021/09/12 03:26:04;;;;;;;22.30;9.17;;;;;;;14.39;70.29;100479.45;126365;1098;104139;-81
2021/09/12 03:28:35;;;;;;;22.07;10.27;;;;;;;14.41;69.61;100484.77;126220;1099;104320;-81
2021/09/12 03:31:06;;;;;;;23.20;10.10;;;;;;;14.42;69.50;100485.67;126275;1099;104139;-79
2021/09/12 03:33:37;;;;;;;25.37;9.67;;;;;;;14.43;70.36;100487.44;126346;1099;104140;-79
2021/09/12 03:36:07;;;;;;;23.30;10.00;;;;;;;14.43;69.89;100483.06;126286;1099;104181;-81
2021/09/12 03:38:38;;;;;;;20.47;9.27;;;;;;;14.43;69.73;100480.42;126337;1099;104343;-80
2021/09/12 03:41:09;;;;;;;19.50;10.07;;;;;;;14.43;70.22;100482.16;126278;1099;104146;-80
2021/09/12 03:43:40;;;;;;;22.57;10.17;;;;;;;14.42;70.02;100477.75;126349;1099;104149;-80
2021/09/12 03:46:10;;;;;;;21.70;10.77;;;;;;;14.37;70.06;100483.82;126289;1099;104285;-80
2021/09/12 03:48:41;;;;;;;23.57;11.27;;;;;;;14.37;70.76;100478.55;126277;1099;104313;-82
2021/09/12 03:51:11;;;;;;;22.97;10.70;;;;;;;14.38;70.64;100487.34;126277;1097;104152;-80
2021/09/12 03:53:42;;;;;;;21.43;10.27;;;;;;;14.39;70.42;100489.13;126302;1099;104243;-80
2021/09/12 03:56:13;;;;;;;20.77;9.87;;;;;;;14.42;69.92;100485.67;126367;1098;104143;-81
2021/09/12 03:58:44;;;;;;;20.07;10.03;;;;;;;14.44;69.82;100489.22;126363;1097;104187;-79
2021/09/12 04:01:14;;;;;;;21.33;10.10;;;;;;;14.45;70.18;100485.73;126272;1099;101857;-81
2021/09/12 04:03:45;;;;;;;21.87;10.57;;;;;;;14.46;69.69;100487.49;126349;1099;104152;-80
2021/09/12 04:06:16;;;;;;;21.33;10.00;;;;;;;14.44;70.31;100482.19;126324;1099;104182;-80
2021/09/12 04:08:46;;;;;;;20.63;10.47;;;;;;;14.43;70.39;100487.44;126316;1099;104213;-78
2021/09/12 04:11:17;;;;;;;20.03;9.63;;;;;;;14.42;70.54;100477.75;126282;1099;104128;-81
2021/09/12 04:13:48;;;;;;;20.83;10.67;;;;;;;14.42;69.87;100483.91;126293;1099;104136;-80
2021/09/12 04:16:19;;;;;;;19.03;9.10;;;;;;;14.45;69.93;100480.45;126256;1099;104210;-80
2021/09/12 04:18:49;;;;;;;19.47;9.73;;;;;;;14.48;70.24;100480.52;126278;1099;104140;-80
2021/09/12 04:21:20;;;;;;;20.50;9.80;;;;;;;14.53;69.79;100486.77;126315;1099;104176;-80
2021/09/12 04:23:51;;;;;;;19.67;9.53;;;;;;;14.56;70.14;100485.06;126378;1098;104247;-80
2021/09/12 04:26:23;;;;;;;21.53;10.00;;;;;;;14.61;69.42;100486.95;126286;1099;104222;-81
2021/09/12 04:28:54;;;;;;;20.10;10.43;;;;;;;14.65;69.44;100487.03;126309;1099;104172;-80
2021/09/12 04:31:25;;;;;;;24.07;11.27;;;;;;;14.68;69.89;100492.38;126264;1099;104175;-80
2021/09/12 04:33:56;;;;;;;19.23;9.77;;;;;;;14.70;70.16;100493.28;126179;1099;104172;-81
2021/09/12 04:36:26;;;;;;;21.27;10.17;;;;;;;14.79;69.84;100491.66;126332;1099;104239;-80
2021/09/12 04:38:57;;;;;;;20.40;9.43;;;;;;;14.86;69.74;100490.92;126282;1099;104203;-80
2021/09/12 04:41:28;;;;;;;23.97;9.80;;;;;;;14.94;70.14;100491.95;126268;1099;104143;-80
2021/09/12 04:43:58;;;;;;;20.17;9.70;;;;;;;15.02;69.63;100490.34;126263;1099;113093;-80
2021/09/12 04:46:29;;;;;;;22.53;10.00;;;;;;;15.08;69.26;100495.74;126305;1099;104149;-81
2021/09/12 04:49:00;;;;;;;19.70;10.03;;;;;;;15.15;69.93;100495.84;126343;1099;104137;-80
2021/09/12 04:51:31;;;;;;;21.27;9.67;;;;;;;15.18;69.43;100495.90;126316;1099;105730;-80
2021/09/12 04:54:02;;;;;;;25.13;10.90;;;;;;;15.18;69.89;100488.84;126254;1099;105464;-80
2021/09/12 04:56:33;;;;;;;21.73;10.13;;;;;;;15.19;69.22;100493.28;126311;1099;104152;-82
2021/09/12 04:59:03;;;;;;;20.77;10.23;;;;;;;15.24;68.88;100493.36;126361;1097;104175;-81
2021/09/12 05:01:34;;;;;;;20.03;9.70;;;;;;;15.30;69.91;100495.20;126205;1099;104284;-81
2021/09/12 05:04:05;;;;;;;20.40;9.63;;;;;;;15.35;69.18;100490.86;125366;1099;104219;-81
2021/09/12 05:06:36;;;;;;;22.60;9.90;;;;;;;15.41;69.21;100485.67;126197;1099;104200;-81
2021/09/12 05:09:06;;;;;;;21.73;9.70;;;;;;;15.49;69.65;100483.15;126210;1099;104280;-80
2021/09/12 05:11:37;;;;;;;21.87;9.93;;;;;;;15.56;69.24;100482.39;126220;1099;104178;-81
2021/09/12 05:14:08;;;;;;;24.07;10.70;;;;;;;15.61;68.80;100478.05;125485;1099;104358;-80
2021/09/12 05:16:38;;;;;;;24.47;10.47;;;;;;;15.68;68.62;100487.86;126097;1099;104150;-79
2021/09/12 05:19:09;;;;;;;22.93;10.80;;;;;;;15.71;68.63;100481.73;126403;1099;104338;-79
2021/09/12 05:21:39;;;;;;;19.00;9.50;;;;;;;15.75;69.48;100481.80;125540;1099;104473;-79
2021/09/12 05:24:10;;;;;;;19.17;9.70;;;;;;;15.82;69.11;100488.09;126195;1099;104198;-81
2021/09/12 05:26:41;;;;;;;23.03;9.90;;;;;;;15.88;69.35;100480.25;126200;1099;104207;-80
2021/09/12 05:29:13;;;;;;;21.80;10.47;;;;;;;15.93;68.65;100481.19;126176;1098;104322;-80
2021/09/12 05:31:44;;;;;;;22.33;9.53;;;;;;;15.99;68.87;100489.20;126259;1099;104274;-81
2021/09/12 05:34:16;;;;;;;22.93;10.43;;;;;;;16.03;68.39;100487.48;126232;1099;104137;-82
2021/09/12 05:36:47;;;;;;;22.53;11.17;;;;;;;16.05;68.36;100480.47;126329;1099;104137;-81
2021/09/12 05:39:18;;;;;;;21.37;10.33;;;;;;;16.09;68.11;100479.62;126287;1099;104181;-81
2021/09/12 05:41:49;;;;;;;23.47;10.30;;;;;;;16.13;68.23;100481.45;126304;1099;104622;-80
2021/09/12 05:44:19;;;;;;;24.40;10.57;;;;;;;16.17;68.40;100488.57;126305;1099;104284;-80
2021/09/12 05:46:52;;;;;;;21.05;9.20;;;;;;;16.24;68.11;100480.70;126360;1099;104272;-80
2021/09/12 05:49:23;;;;;;;23.30;9.47;;;;;;;16.27;67.76;100488.69;126350;1096;104288;-80
2021/09/12 05:51:54;;;;;;;22.57;9.90;;;;;;;16.29;67.96;100484.29;126247;1099;104833;-80
2021/09/12 05:54:25;;;;;;;25.20;10.50;;;;;;;16.34;67.90;100485.22;126147;1099;104354;-80
2021/09/12 05:56:57;;;;;;;20.23;10.13;;;;;;;16.39;67.77;100479.98;126199;1099;104171;-80
2021/09/12 05:59:29;;;;;;;23.05;9.75;;;;;;;16.43;67.68;100480.03;126264;1099;104142;-80
2021/09/12 06:02:01;;;;;;;25.17;10.87;;;;;;;16.50;67.57;100481.89;126233;1099;104254;-79
2021/09/12 06:04:31;;;;;;;22.57;9.70;;;;;;;16.56;67.47;100489.00;126153;1099;104255;-80
2021/09/12 06:07:03;;;;;;;20.93;9.63;;;;;;;16.65;66.85;100486.45;126218;1099;104319;-81
2021/09/12 06:09:34;;;;;;;26.33;10.43;;;;;;;16.75;66.73;100487.45;126207;1099;104245;-81
2021/09/12 06:12:05;;;;;;;23.10;11.13;;;;;;;16.81;66.61;100483.96;126196;1099;104184;-81
2021/09/12 06:14:37;;;;;;;25.23;10.13;;;;;;;16.88;66.75;100478.77;126157;1099;104262;-80
2021/09/12 06:17:12;;;;;;;24.63;10.37;;;;;;;16.97;66.46;100485.02;126261;1099;104300;-80
2021/09/12 06:19:44;;;;;;;25.60;10.60;;;;;;;17.06;66.70;100479.80;126203;1099;104393;-81
2021/09/12 06:22:14;;;;;;;21.33;9.73;;;;;;;17.18;66.61;100486.98;126235;1099;104286;-80
2021/09/12 06:24:46;;;;;;;25.40;9.83;;;;;;;17.31;66.75;100487.97;126227;1099;104217;-80
2021/09/12 06:27:18;;;;;;;20.03;9.97;;;;;;;17.46;66.22;100481.91;126332;1099;104140;-80
2021/09/12 06:29:48;;;;;;;23.05;9.90;;;;;;;17.60;66.01;100488.19;126372;1099;104296;-81
2021/09/12 06:32:19;;;;;;;25.33;10.80;;;;;;;17.74;65.89;100486.50;126299;1099;104325;-80
2021/09/12 06:34:50;;;;;;;22.00;10.63;;;;;;;17.88;64.90;100491.93;126253;1099;104147;-80
2021/09/12 06:37:21;;;;;;;22.50;9.80;;;;;;;18.00;64.93;100488.47;126336;1099;104143;-81
2021/09/12 06:39:51;;;;;;;20.07;9.93;;;;;;;18.11;64.50;100489.39;126332;1098;104149;-79
2021/09/12 06:42:23;;;;;;;27.03;10.63;;;;;;;18.22;64.34;100486.79;126331;1099;104141;-79
2021/09/12 06:44:54;;;;;;;23.83;10.47;;;;;;;18.32;64.19;100487.70;126215;1099;104283;-80
2021/09/12 06:47:27;;;;;;;22.13;9.90;;;;;;;18.45;64.08;100488.63;126183;1099;104310;-82
2021/09/12 06:49:58;;;;;;;21.20;10.07;;;;;;;18.58;63.45;100501.08;125454;1099;104159;-79
2021/09/12 06:52:32;;;;;;;23.80;9.87;;;;;;;18.69;63.33;100490.48;125466;1099;104283;-81
2021/09/12 06:55:03;;;;;;;25.35;10.40;;;;;;;18.79;62.87;100494.95;125892;1099;104404;-80
2021/09/12 06:57:34;;;;;;;23.07;10.60;;;;;;;18.88;62.21;100499.41;125610;1099;104408;-80
2021/09/12 07:00:06;;;;;;;25.70;10.17;;;;;;;18.98;62.17;100511.84;125623;1099;104345;-80
2021/09/12 07:02:39;;;;;;;23.77;10.10;;;;;;;19.10;62.14;100510.95;125623;1098;104419;-80
2021/09/12 07:05:11;;;;;;;22.73;9.70;;;;;;;19.23;62.36;100506.55;125759;1099;104216;-80
2021/09/12 07:07:42;;;;;;;20.67;10.23;;;;;;;19.35;62.38;100506.55;126213;1099;104402;-81
2021/09/12 07:10:13;;;;;;;22.37;9.93;;;;;;;19.47;61.62;100505.63;126092;1098;104750;-80
2021/09/12 07:12:44;;;;;;;21.05;10.45;;;;;;;19.62;61.42;100506.50;125976;1099;104258;-80
2021/09/12 07:15:16;;;;;;;;;;;;;;;19.72;59.65;100500.28;126097;1099;104363;-80
2021/09/12 07:17:47;;;;;;;21.37;10.90;;;;;;;19.84;60.37;100505.62;125982;1099;104156;-81
2021/09/12 07:20:19;;;;;;;27.80;11.23;;;;;;;19.97;60.85;100506.46;126199;1099;104245;-80
2021/09/12 07:22:50;;;;;;;24.37;11.27;;;;;;;20.12;60.63;100500.22;126323;1099;104178;-81
2021/09/12 07:25:22;;;;;;;26.23;10.77;;;;;;;20.25;60.92;100503.70;126297;1098;104153;-80
2021/09/12 07:27:54;;;;;;;21.33;10.33;;;;;;;20.39;60.33;100504.53;126332;1099;104153;-79
2021/09/12 07:30:24;;;;;;;25.07;11.47;;;;;;;20.52;60.01;100500.05;126299;1099;104291;-80
2021/09/12 07:32:55;;;;;;;24.60;11.03;;;;;;;20.65;59.04;100501.77;126181;1099;104169;-79
2021/09/12 07:35:26;;;;;;;23.20;10.60;;;;;;;20.78;59.02;100502.57;125251;1102;104232;-79
2021/09/12 07:37:56;;;;;;;22.80;10.40;;;;;;;20.88;58.68;100498.09;125292;1102;104204;-79
2021/09/12 07:40:27;;;;;;;22.07;10.77;;;;;;;21.00;58.23;100502.43;125277;1102;104210;-80
2021/09/12 07:43:02;;;;;;;22.80;11.30;;;;;;;21.11;59.25;100499.69;125239;1102;104670;-80
2021/09/12 07:45:35;;;;;;;23.15;10.50;;;;;;;21.22;58.99;100491.59;125282;1102;104278;-80
2021/09/12 07:48:07;;;;;;;24.77;10.60;;;;;;;21.32;57.83;100493.30;125271;1102;104213;-80
2021/09/12 07:50:39;;;;;;;21.77;10.77;;;;;;;21.43;57.64;100496.75;125265;1102;104269;-79
2021/09/12 07:53:11;;;;;;;20.53;10.40;;;;;;;21.54;58.02;100497.56;125331;1100;104195;-80
2021/09/12 07:55:42;;;;;;;21.20;10.07;;;;;;;21.64;56.93;100505.48;125253;1102;104463;-80
2021/09/12 07:58:14;;;;;;;21.03;10.60;;;;;;;21.69;57.12;100504.55;125281;1102;104306;-79
2021/09/12 08:00:46;;;;;;;22.83;9.80;;;;;;;21.78;57.12;100498.21;125260;1102;104187;-79
2021/09/12 08:03:17;;;;;;;24.77;10.87;;;;;;;21.82;56.80;100494.62;125271;1102;104176;-79
2021/09/12 08:05:49;;;;;;;25.43;9.93;;;;;;;21.90;56.18;100497.20;125232;1099;104217;-80
2021/09/12 08:08:20;;;;;;;23.67;10.73;;;;;;;21.96;55.57;100496.27;126202;1099;104303;-80
2021/09/12 08:10:51;;;;;;;25.23;10.00;;;;;;;22.03;56.43;100493.51;126362;1099;104172;-79
2021/09/12 08:13:22;;;;;;;18.60;9.43;;;;;;;22.11;55.89;100490.75;126326;1099;104303;-79
2021/09/12 08:15:53;;;;;;;21.27;9.87;;;;;;;22.19;55.10;100495.97;126340;1099;104153;-80
2021/09/12 08:18:24;;;;;;;24.00;10.43;;;;;;;22.28;55.03;100495.86;126293;1099;112106;-80
2021/09/12 08:20:55;;;;;;;21.53;9.80;;;;;;;22.35;55.17;100489.57;126350;1097;104267;-81
2021/09/12 08:23:25;;;;;;;21.27;10.23;;;;;;;22.45;55.16;100498.34;126334;1097;104627;-80
2021/09/12 08:25:59;;;;;;;21.83;10.40;;;;;;;22.56;54.66;100487.50;126337;1099;104660;-80
2021/09/12 08:28:30;;;;;;;;;;;;;;;22.65;54.11;100483.83;126323;1099;104140;-80
2021/09/12 08:31:06;;;;;;;21.10;9.90;;;;;;;22.74;54.24;100481.90;126320;1099;104293;-80
2021/09/12 08:33:37;;;;;;;22.27;10.37;;;;;;;22.82;54.06;100483.59;126335;1098;104143;-79
2021/09/12 08:36:10;;;;;;;24.17;10.23;;;;;;;22.95;53.30;100490.50;126311;1098;104333;-78
2021/09/12 08:38:41;;;;;;;24.00;9.88;;;;;;;23.04;53.33;100484.13;126234;1099;104246;-79
2021/09/12 08:41:12;;;;;;;20.87;10.03;;;;;;;23.14;53.79;100485.80;126316;1099;104213;-80
2021/09/12 08:43:50;;;;;;;23.20;9.80;;;;;;;23.21;52.97;100476.73;126166;1099;104322;-79
2021/09/12 08:46:21;;;;;;;19.70;9.70;;;;;;;23.30;52.36;100481.94;126227;1099;101776;-79
2021/09/12 08:48:51;;;;;;;28.20;9.70;;;;;;;23.38;52.73;100483.61;126310;1098;104946;-80
2021/09/12 08:51:24;;;;;;;20.50;9.70;;;;;;;23.45;52.26;100477.21;126313;1097;104223;-78
2021/09/12 08:53:55;;;;;;;20.43;9.93;;;;;;;23.56;52.50;100480.61;126322;1099;104198;-79
2021/09/12 08:56:26;;;;;;;20.17;10.43;;;;;;;23.67;52.34;100473.24;126235;1099;104249;-80
2021/09/12 08:58:57;;;;;;;18.47;9.40;;;;;;;23.77;51.65;100475.75;126305;1099;104147;-79
2021/09/12 09:01:34;;;;;;;22.40;9.67;;;;;;;23.87;51.84;100477.35;126312;1099;104185;-80
2021/09/12 09:04:06;;;;;;;19.10;9.30;;;;;;;24.01;51.17;100466.36;126319;1099;104198;-79
2021/09/12 09:06:38;;;;;;;20.33;8.53;;;;;;;24.12;51.55;100476.86;126311;1099;103977;-79
2021/09/12 09:09:09;;;;;;;20.57;9.47;;;;;;;24.20;51.18;100467.76;126230;1099;105610;-80
2021/09/12 09:11:42;;;;;;;18.90;9.07;;;;;;;24.25;50.80;100459.62;126285;1099;104133;-79
2021/09/12 09:14:18;;;;;;;19.07;9.70;;;;;;;24.36;50.38;100464.75;126299;1099;104267;-79
2021/09/12 09:16:52;;;;;;;21.43;10.03;;;;;;;24.48;50.45;100458.21;126310;1099;104341;-78
2021/09/12 09:19:24;;;;;;;17.10;8.80;;;;;;;24.55;50.41;100460.72;126313;1097;104169;-80
2021/09/12 09:21:56;;;;;;;20.30;8.73;;;;;;;24.67;49.89;100458.73;126325;1099;104255;-79
2021/09/12 09:24:30;;;;;;;18.80;8.77;;;;;;;24.76;49.99;100458.48;126312;1097;104251;-79
2021/09/12 09:27:04;;;;;;;20.03;9.13;;;;;;;24.90;49.29;100458.16;126301;1097;104142;-78
2021/09/12 09:29:36;;;;;;;19.10;9.13;;;;;;;24.99;48.67;100444.52;126280;1099;104137;-78
2021/09/12 09:32:09;;;;;;;16.65;9.00;;;;;;;25.08;48.49;100446.09;126297;1099;104229;-79
2021/09/12 09:34:41;;;;;;;22.17;9.37;;;;;;;25.12;48.01;100455.85;126330;1099;104168;-79
2021/09/12 09:37:15;;;;;;;20.43;9.57;;;;;;;25.17;47.04;100451.23;126327;1099;104214;-79
2021/09/12 09:39:49;;;;;;;20.60;8.57;;;;;;;25.25;47.25;100446.55;126277;1099;104264;-80
2021/09/12 09:42:34;;;;;;;18.40;8.50;;;;;;;25.31;46.73;100453.60;126323;1099;104194;-79
2021/09/12 09:45:08;;;;;;;16.77;8.70;;;;;;;25.32;45.85;100449.10;126346;1098;104182;-80
2021/09/12 09:47:41;;;;;;;15.63;7.90;;;;;;;25.31;45.63;100445.55;126313;1098;104685;-81
2021/09/12 09:50:14;;;;;;;19.57;9.13;;;;;;;25.29;45.31;100437.53;126302;1097;104181;-79
2021/09/12 09:52:47;;;;;;;17.37;8.28;;;;;;;25.30;45.47;100443.77;126333;1097;104185;-79
2021/09/12 09:55:20;;;;;;;20.37;8.53;;;;;;;25.35;45.98;100440.97;126274;1099;104146;-79
2021/09/12 09:57:53;;;;;;;19.80;8.53;;;;;;;25.33;44.16;100446.38;126315;1099;104490;-80
2021/09/12 10:00:26;;;;;;;17.93;8.87;;;;;;;25.32;45.05;100441.92;126283;1099;111770;-82
2021/09/12 10:02:57;;;;;;;16.15;8.08;;;;;;;25.32;43.74;100441.92;126322;1099;104140;-80
2021/09/12 10:05:32;;;;;;;18.77;8.20;;;;;;;25.39;43.40;100434.60;126167;1099;104134;-80
2021/09/12 10:08:07;;;;;;;13.90;7.20;;;;;;;25.42;43.16;100434.52;126273;1099;104159;-80
2021/09/12 10:10:38;;;;;;;17.20;8.23;;;;;;;25.50;43.35;100427.13;126081;1099;104255;-79
2021/09/12 10:13:09;;;;;;;17.67;8.30;;;;;;;25.57;43.10;100427.83;126271;1097;104150;-79
2021/09/12 10:15:42;;;;;;;18.47;8.97;;;;;;;25.63;42.65;100431.25;126359;1099;104192;-81
2021/09/12 10:18:15;;;;;;;16.17;8.00;;;;;;;25.73;43.24;100420.25;126359;1098;104163;-79
2021/09/12 10:20:46;;;;;;;16.00;8.05;;;;;;;25.77;42.26;100422.80;126278;1097;104702;-82
2021/09/12 10:23:17;;;;;;;13.87;7.67;;;;;;;25.78;41.36;100424.55;126287;1099;104284;-80
2021/09/12 10:26:00;;;;;;;18.73;7.97;;;;;;;25.83;41.10;100419.91;126342;1099;104143;-80
2021/09/12 10:28:33;;;;;;;17.70;8.00;;;;;;;25.88;40.36;100422.47;126242;1099;104191;-79
2021/09/12 10:31:32;;;;;;;15.97;7.93;;;;;;;25.93;40.47;100415.17;126285;1099;118600;-79
2021/09/12 10:34:10;;;;;;;16.97;7.67;;;;;;;25.99;40.05;100416.81;126279;1099;104146;-79
2021/09/12 10:36:43;;;;;;;16.23;7.10;;;;;;;26.04;40.12;100414.89;126339;1099;104140;-80
2021/09/12 10:39:36;;;;;;;12.63;6.90;;;;;;;26.04;39.59;100414.89;126300;1099;104133;-81
2021/09/12 10:42:20;;;;;;;13.83;6.90;;;;;;;26.06;39.19;100423.78;126333;1099;104194;-78
2021/09/12 10:45:14;;;;;;;16.33;7.53;;;;;;;26.01;37.91;100412.30;126342;1099;104309;-80
2021/09/12 10:47:45;;;;;;;18.05;7.25;;;;;;;26.04;37.66;100409.52;126317;1099;104155;-79
2021/09/12 10:50:42;;;;;;;16.73;7.73;;;;;;;26.04;36.74;100413.98;126300;1098;104140;-79
2021/09/12 10:53:15;;;;;;;16.07;7.47;;;;;;;26.02;37.82;100416.72;126328;1099;104686;-81
2021/09/12 10:58:41;;;;;;;19.40;8.07;;;;;;;26.01;37.94;100410.48;125196;1102;105477;-80
2021/09/12 11:01:24;;;;;;;14.33;7.60;;;;;;;26.06;37.67;100412.16;125167;1102;104194;-79
2021/09/12 11:03:58;;;;;;;16.97;6.97;;;;;;;26.08;37.26;100415.67;125067;1102;104270;-80
2021/09/12 11:06:30;;;;;;;19.47;7.77;;;;;;;26.03;36.78;100402.36;125164;1102;104217;-78
2021/09/12 11:09:03;;;;;;;15.03;7.30;;;;;;;26.07;37.46;100405.83;124959;1102;104271;-80
2021/09/12 11:11:39;;;;;;;17.17;8.50;;;;;;;26.09;36.93;100404.88;125199;1102;104145;-79
2021/09/12 11:14:14;;;;;;;13.27;7.10;;;;;;;26.12;37.06;100398.53;125184;1102;104226;-79
2021/09/12 11:16:47;;;;;;;17.53;7.50;;;;;;;26.14;37.22;100393.97;125003;1102;104205;-78
2021/09/12 11:19:19;;;;;;;18.73;8.23;;;;;;;26.14;36.07;100400.22;124964;1102;104201;-79
2021/09/12 11:21:53;;;;;;;14.35;7.35;;;;;;;26.17;36.95;100397.44;125188;1102;104293;-79